createdAt,value
2022-09-24T00:00:50.656Z,2704
2022-09-24T00:01:42.595Z,2706
2022-09-24T00:02:34.429Z,2744
2022-09-24T00:03:26.278Z,2732
2022-09-24T00:04:17.996Z,2650
2022-09-24T00:05:09.893Z,2724
2022-09-24T00:06:01.755Z,2760
2022-09-24T00:06:53.585Z,3151
2022-09-24T00:07:45.439Z,4655
2022-09-24T00:08:37.297Z,6580
2022-09-24T00:09:29.148Z,5981
2022-09-24T00:10:20.979Z,4177
2022-09-24T00:11:12.863Z,3692
2022-09-24T00:12:04.681Z,3200
2022-09-24T00:12:56.540Z,3022
2022-09-24T00:13:48.290Z,2803
2022-09-24T00:14:40.253Z,2696
2022-09-24T00:15:32.077Z,2640
2022-09-24T00:16:24.043Z,2460
2022-09-24T00:17:15.780Z,2188
2022-09-24T00:18:07.615Z,2085
2022-09-24T00:18:59.438Z,1880
2022-09-24T00:19:51.281Z,1660
2022-09-24T00:20:43.135Z,1555
2022-09-24T00:21:34.962Z,1408
2022-09-24T00:22:26.793Z,1205
2022-09-24T00:23:18.637Z,1189
2022-09-24T00:24:10.514Z,1080
2022-09-24T00:25:02.341Z,957
2022-09-24T00:25:54.123Z,931
2022-09-24T00:26:45.984Z,776
2022-09-24T00:27:37.795Z,679
2022-09-24T00:28:29.632Z,733
2022-09-24T00:29:21.445Z,1271
2022-09-24T00:30:13.288Z,1586
2022-09-24T00:31:05.192Z,1179
2022-09-24T00:31:56.996Z,830
2022-09-24T00:32:48.658Z,870
2022-09-24T00:33:40.596Z,1156
2022-09-24T00:34:32.389Z,1088
2022-09-24T00:35:24.230Z,1032
2022-09-24T00:36:16.052Z,1249
2022-09-24T00:37:07.874Z,1473
2022-09-24T00:37:59.704Z,1295
2022-09-24T00:38:51.533Z,858
2022-09-24T00:39:43.351Z,689
2022-09-24T00:40:35.225Z,725
2022-09-24T00:41:27.022Z,814
2022-09-24T00:42:18.850Z,882
2022-09-24T00:43:10.661Z,933
2022-09-24T00:44:02.500Z,913
2022-09-24T00:44:54.686Z,1044
2022-09-24T00:45:46.149Z,1158
2022-09-24T00:46:38.053Z,1245
2022-09-24T00:47:29.809Z,1334
2022-09-24T00:48:21.608Z,1281
2022-09-24T00:49:13.459Z,1181
2022-09-24T00:50:05.286Z,1525
2022-09-24T00:50:57.132Z,1640
2022-09-24T00:51:48.913Z,1568
2022-09-24T00:52:40.748Z,1187
2022-09-24T00:53:32.587Z,1044
2022-09-24T00:54:24.445Z,995
2022-09-24T00:55:16.274Z,1066
2022-09-24T00:56:07.985Z,1007
2022-09-24T00:56:59.886Z,1614
2022-09-24T00:57:51.742Z,1801
2022-09-24T00:58:43.531Z,2077
2022-09-24T00:59:35.397Z,1380
2022-09-24T01:00:27.276Z,1747
2022-09-24T01:01:19.094Z,1658
2022-09-24T01:02:10.965Z,1372
2022-09-24T01:03:02.695Z,1267
2022-09-24T01:03:54.524Z,989
2022-09-24T01:04:46.372Z,1150
2022-09-24T01:05:38.086Z,1060
2022-09-24T01:06:30.019Z,1167
2022-09-24T01:07:21.837Z,1322
2022-09-24T01:08:13.670Z,1475
2022-09-24T01:09:05.508Z,1382
2022-09-24T01:09:57.365Z,1348
2022-09-24T01:10:49.151Z,1247
2022-09-24T01:11:40.999Z,1058
2022-09-24T01:12:32.817Z,778
2022-09-24T01:13:24.661Z,850
2022-09-24T01:14:16.491Z,757
2022-09-24T01:15:08.249Z,679
2022-09-24T01:16:00.233Z,679
2022-09-24T01:16:51.985Z,688
2022-09-24T01:17:43.792Z,684
2022-09-24T01:18:35.643Z,687
2022-09-24T01:19:27.457Z,840
2022-09-24T01:20:19.284Z,776
2022-09-24T01:21:11.116Z,753
2022-09-24T01:22:02.940Z,674
2022-09-24T01:22:54.757Z,687
2022-09-24T01:23:48.925Z,778
2022-09-24T01:24:38.387Z,1001
2022-09-24T01:25:30.259Z,1116
2022-09-24T01:26:22.072Z,1328
2022-09-24T01:27:13.920Z,935
2022-09-24T01:28:05.712Z,903
2022-09-24T01:28:57.563Z,786
2022-09-24T01:29:49.380Z,755
2022-09-24T01:30:42.357Z,696
2022-09-24T01:31:33.130Z,715
2022-09-24T01:32:28.917Z,844
2022-09-24T01:33:16.689Z,1298
2022-09-24T01:34:08.459Z,1243
2022-09-24T01:35:00.333Z,965
2022-09-24T01:35:52.173Z,927
2022-09-24T01:36:43.997Z,1156
2022-09-24T01:37:35.832Z,1088
2022-09-24T01:38:27.638Z,1134
2022-09-24T01:39:19.483Z,1011
2022-09-24T01:40:11.315Z,1056
2022-09-24T01:41:03.143Z,1501
2022-09-24T01:41:54.932Z,1680
2022-09-24T01:42:46.804Z,1566
2022-09-24T01:43:38.525Z,1559
2022-09-24T01:44:30.427Z,1568
2022-09-24T01:45:22.243Z,1614
2022-09-24T01:46:14.134Z,1815
2022-09-24T01:47:05.898Z,1884
2022-09-24T01:47:57.741Z,1832
2022-09-24T01:48:49.550Z,1374
2022-09-24T01:49:41.404Z,1668
2022-09-24T01:50:33.199Z,1928
2022-09-24T01:51:25.043Z,2039
2022-09-24T01:52:16.850Z,1995
2022-09-24T01:53:08.703Z,1525
2022-09-24T01:54:00.521Z,1009
2022-09-24T01:54:52.378Z,737
2022-09-24T01:55:44.164Z,717
2022-09-24T01:56:36.014Z,1068
2022-09-24T01:57:27.801Z,1354
2022-09-24T01:58:19.633Z,1177
2022-09-24T01:59:11.457Z,1005
2022-09-24T02:00:03.290Z,925
2022-09-24T02:00:55.161Z,937
2022-09-24T02:01:46.994Z,993
2022-09-24T02:02:38.676Z,1134
2022-09-24T02:03:30.582Z,1211
2022-09-24T02:04:22.390Z,1134
2022-09-24T02:05:14.214Z,975
2022-09-24T02:06:06.041Z,858
2022-09-24T02:06:57.871Z,820
2022-09-24T02:07:49.666Z,693
2022-09-24T02:08:41.490Z,678
2022-09-24T02:09:33.299Z,655
2022-09-24T02:10:25.140Z,656
2022-09-24T02:11:16.929Z,687
2022-09-24T02:12:08.762Z,717
2022-09-24T02:13:00.541Z,860
2022-09-24T02:13:52.399Z,971
2022-09-24T02:14:44.189Z,1023
2022-09-24T02:15:36.020Z,1171
2022-09-24T02:16:27.895Z,1344
2022-09-24T02:17:19.666Z,1352
2022-09-24T02:18:11.464Z,1285
2022-09-24T02:19:03.287Z,1279
2022-09-24T02:19:55.085Z,1249
2022-09-24T02:20:46.918Z,1203
2022-09-24T02:21:38.654Z,1207
2022-09-24T02:22:30.591Z,1144
2022-09-24T02:23:22.365Z,1082
2022-09-24T02:24:14.207Z,1118
2022-09-24T02:25:05.957Z,1066
2022-09-24T02:25:57.824Z,1090
2022-09-24T02:26:49.655Z,1096
2022-09-24T02:27:41.473Z,1102
2022-09-24T02:28:33.277Z,1011
2022-09-24T02:29:25.108Z,1001
2022-09-24T02:30:16.908Z,1082
2022-09-24T02:31:08.733Z,1126
2022-09-24T02:32:00.548Z,1078
2022-09-24T02:32:52.372Z,1058
2022-09-24T02:33:44.220Z,979
2022-09-24T02:34:36.007Z,951
2022-09-24T02:35:27.803Z,834
2022-09-24T02:36:19.645Z,824
2022-09-24T02:37:11.439Z,876
2022-09-24T02:38:06.234Z,880
2022-09-24T02:38:55.099Z,870
2022-09-24T02:39:46.907Z,745
2022-09-24T02:40:38.763Z,698
2022-09-24T02:41:30.556Z,677
2022-09-24T02:42:22.397Z,670
2022-09-24T02:43:14.186Z,661
2022-09-24T02:44:05.984Z,675
2022-09-24T02:44:57.820Z,663
2022-09-24T02:45:49.621Z,682
2022-09-24T02:46:41.561Z,689
2022-09-24T02:47:33.260Z,705
2022-09-24T02:48:25.095Z,676
2022-09-24T02:49:16.885Z,691
2022-09-24T02:50:08.645Z,669
2022-09-24T02:51:00.529Z,679
2022-09-24T02:51:52.356Z,698
2022-09-24T02:52:44.182Z,774
2022-09-24T02:53:36.004Z,768
2022-09-24T02:54:27.806Z,790
2022-09-24T02:55:19.635Z,806
2022-09-24T02:56:11.434Z,709
2022-09-24T02:57:03.278Z,696
2022-09-24T02:57:55.068Z,693
2022-09-24T02:58:46.899Z,684
2022-09-24T02:59:38.707Z,698
2022-09-24T03:00:30.549Z,749
2022-09-24T03:01:22.398Z,676
2022-09-24T03:02:14.435Z,647
2022-09-24T03:03:06.040Z,646
2022-09-24T03:03:57.836Z,651
2022-09-24T03:04:49.622Z,653
2022-09-24T03:05:41.466Z,615
2022-09-24T03:06:33.262Z,591
2022-09-24T03:07:25.111Z,595
2022-09-24T03:08:16.900Z,583
2022-09-24T03:09:08.644Z,581
2022-09-24T03:10:00.554Z,595
2022-09-24T03:10:52.367Z,613
2022-09-24T03:11:44.109Z,610
2022-09-24T03:12:35.997Z,614
2022-09-24T03:13:27.817Z,601
2022-09-24T03:14:19.632Z,609
2022-09-24T03:15:11.478Z,610
2022-09-24T03:16:03.335Z,590
2022-09-24T03:16:55.086Z,565
2022-09-24T03:17:46.939Z,567
2022-09-24T03:18:38.658Z,547
2022-09-24T03:19:30.559Z,541
2022-09-24T03:20:22.348Z,526
2022-09-24T03:21:14.170Z,539
2022-09-24T03:22:05.994Z,558
2022-09-24T03:22:57.811Z,554
2022-09-24T03:23:49.620Z,544
2022-09-24T03:24:41.436Z,551
2022-09-24T03:25:33.254Z,547
2022-09-24T03:26:25.093Z,533
2022-09-24T03:27:16.875Z,533
2022-09-24T03:28:08.605Z,537
2022-09-24T03:29:00.519Z,550
2022-09-24T03:29:52.329Z,562
2022-09-24T03:30:44.135Z,532
2022-09-24T03:31:35.998Z,640
2022-09-24T03:32:27.798Z,630
2022-09-24T03:33:19.605Z,572
2022-09-24T03:34:11.488Z,560
2022-09-24T03:35:03.216Z,551
2022-09-24T03:35:55.039Z,525
2022-09-24T03:36:46.865Z,550
2022-09-24T03:37:38.623Z,534
2022-09-24T03:38:30.489Z,530
2022-09-24T03:39:22.310Z,543
2022-09-24T03:40:14.176Z,527
2022-09-24T03:41:05.934Z,530
2022-09-24T03:41:57.770Z,500
2022-09-24T03:42:49.572Z,499
2022-09-24T03:43:41.400Z,467
2022-09-24T03:44:33.199Z,493
2022-09-24T03:45:25.037Z,544
2022-09-24T03:46:16.967Z,520
2022-09-24T03:47:08.630Z,489
2022-09-24T03:48:00.471Z,459
2022-09-24T03:48:52.288Z,442
2022-09-24T03:49:44.092Z,454
2022-09-24T03:50:35.916Z,455
2022-09-24T03:51:27.726Z,474
2022-09-24T03:52:19.541Z,468
2022-09-24T03:53:11.376Z,482
2022-09-24T03:54:03.185Z,505
2022-09-24T03:54:54.977Z,562
2022-09-24T03:55:46.820Z,568
2022-09-24T03:56:38.531Z,512
2022-09-24T03:57:30.450Z,478
2022-09-24T03:58:22.241Z,454
2022-09-24T03:59:14.076Z,471
2022-09-24T04:00:05.805Z,472
2022-09-24T04:00:57.715Z,462
2022-09-24T04:01:49.561Z,526
2022-09-24T04:02:41.382Z,569
2022-09-24T04:03:33.131Z,557
2022-09-24T04:04:24.980Z,547
2022-09-24T04:05:16.768Z,532
2022-09-24T04:06:08.518Z,520
2022-09-24T04:07:00.382Z,536
2022-09-24T04:07:52.218Z,542
2022-09-24T04:08:43.990Z,545
2022-09-24T04:09:35.846Z,579
2022-09-24T04:10:27.649Z,554
2022-09-24T04:11:19.469Z,548
2022-09-24T04:12:11.283Z,533
2022-09-24T04:13:03.096Z,494
2022-09-24T04:13:54.919Z,487
2022-09-24T04:14:46.724Z,477
2022-09-24T04:15:38.467Z,472
2022-09-24T04:16:30.440Z,469
2022-09-24T04:17:22.166Z,493
2022-09-24T04:18:13.995Z,513
2022-09-24T04:19:05.790Z,535
2022-09-24T04:19:57.592Z,543
2022-09-24T04:20:49.399Z,561
2022-09-24T04:21:41.221Z,551
2022-09-24T04:22:33.036Z,533
2022-09-24T04:23:24.916Z,486
2022-09-24T04:24:16.641Z,495
2022-09-24T04:25:12.651Z,465
2022-09-24T04:26:00.277Z,465
2022-09-24T04:26:52.106Z,492
2022-09-24T04:27:43.879Z,525
2022-09-24T04:28:35.708Z,518
2022-09-24T04:29:27.502Z,515
2022-09-24T04:30:19.264Z,501
2022-09-24T04:31:11.180Z,502
2022-09-24T04:32:02.951Z,530
2022-09-24T04:32:54.719Z,523
2022-09-24T04:33:46.547Z,525
2022-09-24T04:34:38.288Z,521
2022-09-24T04:35:30.159Z,530
2022-09-24T04:36:21.942Z,506
2022-09-24T04:37:13.782Z,520
2022-09-24T04:38:05.562Z,517
2022-09-24T04:38:57.364Z,508
2022-09-24T04:39:49.164Z,492
2022-09-24T04:40:41.132Z,508
2022-09-24T04:41:32.786Z,513
2022-09-24T04:42:24.594Z,536
2022-09-24T04:43:16.372Z,539
2022-09-24T04:44:08.312Z,540
2022-09-24T04:44:59.981Z,518
2022-09-24T04:45:51.806Z,509
2022-09-24T04:46:43.656Z,495
2022-09-24T04:47:35.423Z,496
2022-09-24T04:48:27.196Z,505
2022-09-24T04:49:19.012Z,498
2022-09-24T04:50:10.794Z,513
2022-09-24T04:51:02.634Z,512
2022-09-24T04:51:54.407Z,481
2022-09-24T04:52:46.233Z,494
2022-09-24T04:53:38.020Z,502
2022-09-24T04:54:29.827Z,524
2022-09-24T04:55:21.643Z,515
2022-09-24T04:56:13.424Z,523
2022-09-24T04:57:05.224Z,539
2022-09-24T04:57:57.032Z,539
2022-09-24T04:58:48.774Z,537
2022-09-24T04:59:40.802Z,537
2022-09-24T05:00:32.427Z,552
2022-09-24T05:01:24.310Z,541
2022-09-24T05:02:16.302Z,547
2022-09-24T05:03:07.885Z,567
2022-09-24T05:03:59.631Z,566
2022-09-24T05:04:51.445Z,562
2022-09-24T05:05:43.230Z,553
2022-09-24T05:06:35.042Z,564
2022-09-24T05:07:26.850Z,555
2022-09-24T05:08:18.562Z,529
2022-09-24T05:09:12.553Z,524
2022-09-24T05:10:02.257Z,526
2022-09-24T05:10:54.036Z,532
2022-09-24T05:11:45.865Z,513
2022-09-24T05:12:37.634Z,495
2022-09-24T05:13:29.455Z,505
2022-09-24T05:14:21.252Z,499
2022-09-24T05:15:13.052Z,529
2022-09-24T05:16:04.894Z,552
2022-09-24T05:16:56.661Z,550
2022-09-24T05:17:48.390Z,572
2022-09-24T05:18:40.249Z,573
2022-09-24T05:19:32.062Z,592
2022-09-24T05:20:23.880Z,549
2022-09-24T05:21:15.674Z,552
2022-09-24T05:22:07.484Z,518
2022-09-24T05:22:59.270Z,498
2022-09-24T05:23:51.089Z,494
2022-09-24T05:24:42.893Z,501
2022-09-24T05:25:34.712Z,495
2022-09-24T05:26:26.680Z,494
2022-09-24T05:27:18.320Z,483
2022-09-24T05:28:10.111Z,485
2022-09-24T05:29:01.997Z,487
2022-09-24T05:29:53.701Z,489
2022-09-24T05:30:45.510Z,470
2022-09-24T05:31:37.354Z,483
2022-09-24T05:32:29.070Z,523
2022-09-24T05:33:20.933Z,477
2022-09-24T05:34:12.721Z,484
2022-09-24T05:35:04.498Z,511
2022-09-24T05:35:56.337Z,541
2022-09-24T05:36:48.125Z,491
2022-09-24T05:37:39.919Z,496
2022-09-24T05:38:31.717Z,469
2022-09-24T05:39:23.532Z,445
2022-09-24T05:40:15.396Z,459
2022-09-24T05:41:07.119Z,458
2022-09-24T05:41:58.837Z,467
2022-09-24T05:42:50.735Z,461
2022-09-24T05:43:42.509Z,452
2022-09-24T05:44:34.331Z,457
2022-09-24T05:45:26.125Z,454
2022-09-24T05:46:17.976Z,440
2022-09-24T05:47:09.715Z,443
2022-09-24T05:48:01.538Z,432
2022-09-24T05:48:53.313Z,411
2022-09-24T05:49:45.133Z,422
2022-09-24T05:50:36.922Z,407
2022-09-24T05:51:28.670Z,417
2022-09-24T05:52:20.508Z,430
2022-09-24T05:53:12.329Z,426
2022-09-24T05:54:04.122Z,433
2022-09-24T05:54:55.918Z,421
2022-09-24T05:55:47.707Z,434
2022-09-24T05:56:39.513Z,422
2022-09-24T05:57:31.305Z,414
2022-09-24T05:58:23.129Z,405
2022-09-24T05:59:14.912Z,405
2022-09-24T06:00:06.600Z,391
2022-09-24T06:00:58.423Z,396
2022-09-24T06:01:50.392Z,401
2022-09-24T06:02:42.182Z,402
2022-09-24T06:03:33.971Z,422
2022-09-24T06:04:25.670Z,408
2022-09-24T06:05:17.477Z,421
2022-09-24T06:06:09.268Z,414
2022-09-24T06:07:01.000Z,426
2022-09-24T06:07:52.861Z,419
2022-09-24T06:08:44.664Z,417
2022-09-24T06:09:36.456Z,413
2022-09-24T06:10:28.319Z,404
2022-09-24T06:11:20.054Z,418
2022-09-24T06:12:11.857Z,424
2022-09-24T06:13:03.639Z,409
2022-09-24T06:13:55.449Z,420
2022-09-24T06:14:47.225Z,435
2022-09-24T06:15:39.020Z,423
2022-09-24T06:16:30.874Z,411
2022-09-24T06:17:22.634Z,428
2022-09-24T06:18:14.425Z,417
2022-09-24T06:19:06.213Z,418
2022-09-24T06:19:58.018Z,402
2022-09-24T06:20:49.846Z,396
2022-09-24T06:21:41.622Z,384
2022-09-24T06:22:33.426Z,389
2022-09-24T06:23:25.228Z,400
2022-09-24T06:24:17.017Z,402
2022-09-24T06:25:08.714Z,401
2022-09-24T06:26:00.613Z,405
2022-09-24T06:26:52.380Z,399
2022-09-24T06:27:44.203Z,412
2022-09-24T06:28:35.989Z,428
2022-09-24T06:29:27.787Z,471
2022-09-24T06:30:19.528Z,593
2022-09-24T06:31:11.423Z,2138
2022-09-24T06:32:03.201Z,2013
2022-09-24T06:32:54.970Z,1590
2022-09-24T06:33:46.765Z,1181
2022-09-24T06:34:38.528Z,860
2022-09-24T06:35:30.356Z,685
2022-09-24T06:36:22.162Z,661
2022-09-24T06:37:13.957Z,619
2022-09-24T06:38:05.751Z,586
2022-09-24T06:38:57.539Z,581
2022-09-24T06:39:49.356Z,588
2022-09-24T06:40:41.201Z,575
2022-09-24T06:41:32.932Z,567
2022-09-24T06:42:24.734Z,563
2022-09-24T06:43:16.538Z,566
2022-09-24T06:44:08.304Z,549
2022-09-24T06:45:00.128Z,568
2022-09-24T06:45:51.895Z,558
2022-09-24T06:46:43.898Z,541
2022-09-24T06:47:35.480Z,544
2022-09-24T06:48:27.299Z,554
2022-09-24T06:49:18.996Z,540
2022-09-24T06:50:10.878Z,548
2022-09-24T06:51:02.691Z,546
2022-09-24T06:51:54.464Z,535
2022-09-24T06:52:46.266Z,531
2022-09-24T06:53:38.050Z,513
2022-09-24T06:54:29.842Z,518
2022-09-24T06:55:21.646Z,496
2022-09-24T06:56:13.419Z,485
2022-09-24T06:57:05.246Z,474
2022-09-24T06:57:56.990Z,473
2022-09-24T06:58:48.822Z,467
2022-09-24T06:59:40.589Z,478
2022-09-24T07:00:32.593Z,472
2022-09-24T07:01:24.289Z,484
2022-09-24T07:02:16.070Z,474
2022-09-24T07:03:07.748Z,477
2022-09-24T07:03:59.555Z,474
2022-09-24T07:04:51.327Z,477
2022-09-24T07:05:43.946Z,478
2022-09-24T07:06:34.932Z,459
2022-09-24T07:07:26.758Z,478
2022-09-24T07:08:18.496Z,463
2022-09-24T07:09:10.320Z,510
2022-09-24T07:10:02.115Z,524
2022-09-24T07:10:53.912Z,579
2022-09-24T07:11:45.714Z,617
2022-09-24T07:12:37.517Z,642
2022-09-24T07:13:29.296Z,643
2022-09-24T07:14:21.122Z,656
2022-09-24T07:15:12.927Z,651
2022-09-24T07:16:04.865Z,652
2022-09-24T07:16:56.522Z,653
2022-09-24T07:17:48.337Z,657
2022-09-24T07:18:40.149Z,655
2022-09-24T07:19:31.966Z,666
2022-09-24T07:20:23.843Z,668
2022-09-24T07:21:15.590Z,651
2022-09-24T07:22:07.404Z,656
2022-09-24T07:22:59.151Z,660
2022-09-24T07:23:55.094Z,677
2022-09-24T07:24:42.876Z,682
2022-09-24T07:25:34.682Z,668
2022-09-24T07:26:26.507Z,680
2022-09-24T07:27:18.315Z,677
2022-09-24T07:28:10.143Z,683
2022-09-24T07:29:01.988Z,686
2022-09-24T07:29:53.802Z,691
2022-09-24T07:30:45.603Z,674
2022-09-24T07:31:37.515Z,664
2022-09-24T07:32:30.083Z,683
2022-09-24T07:33:21.098Z,691
2022-09-24T07:34:12.901Z,686
2022-09-24T07:35:04.753Z,693
2022-09-24T07:35:56.557Z,696
2022-09-24T07:36:48.411Z,715
2022-09-24T07:37:40.218Z,680
2022-09-24T07:38:32.064Z,692
2022-09-24T07:39:23.870Z,698
2022-09-24T07:40:15.817Z,688
2022-09-24T07:41:07.525Z,866
2022-09-24T07:41:59.335Z,844
2022-09-24T07:42:51.190Z,804
2022-09-24T07:43:43.009Z,766
2022-09-24T07:44:34.846Z,788
2022-09-24T07:45:26.669Z,971
2022-09-24T07:46:18.569Z,1025
2022-09-24T07:47:15.260Z,1009
2022-09-24T07:48:02.149Z,941
2022-09-24T07:48:53.982Z,971
2022-09-24T07:49:45.813Z,1088
2022-09-24T07:50:37.647Z,1100
2022-09-24T07:51:29.380Z,1090
2022-09-24T07:52:21.294Z,1052
2022-09-24T07:53:13.101Z,895
2022-09-24T07:54:04.995Z,784
2022-09-24T07:54:56.749Z,780
2022-09-24T07:55:48.599Z,975
2022-09-24T07:56:40.422Z,1017
2022-09-24T07:57:32.237Z,834
2022-09-24T07:58:24.067Z,890
2022-09-24T07:59:15.895Z,729
2022-09-24T08:00:07.717Z,852
2022-09-24T08:00:59.486Z,648
2022-09-24T08:01:51.415Z,617
2022-09-24T08:02:43.216Z,631
2022-09-24T08:03:35.047Z,633
2022-09-24T08:04:26.855Z,612
2022-09-24T08:05:18.691Z,596
2022-09-24T08:06:10.396Z,604
2022-09-24T08:07:02.370Z,646
2022-09-24T08:07:54.141Z,695
2022-09-24T08:08:45.950Z,886
2022-09-24T08:09:37.776Z,834
2022-09-24T08:10:29.596Z,671
2022-09-24T08:11:21.430Z,664
2022-09-24T08:12:13.244Z,611
2022-09-24T08:13:05.073Z,600
2022-09-24T08:13:56.881Z,616
2022-09-24T08:14:48.673Z,614
2022-09-24T08:15:40.705Z,617
2022-09-24T08:16:32.440Z,607
2022-09-24T08:17:24.192Z,611
2022-09-24T08:18:16.020Z,606
2022-09-24T08:19:07.837Z,579
2022-09-24T08:19:59.656Z,592
2022-09-24T08:20:51.456Z,606
2022-09-24T08:21:43.298Z,620
2022-09-24T08:22:35.088Z,620
2022-09-24T08:23:26.931Z,617
2022-09-24T08:24:18.690Z,616
2022-09-24T08:25:10.580Z,608
2022-09-24T08:26:02.397Z,601
2022-09-24T08:26:54.213Z,610
2022-09-24T08:27:46.016Z,605
2022-09-24T08:28:37.853Z,596
2022-09-24T08:29:29.657Z,585
2022-09-24T08:30:21.650Z,575
2022-09-24T08:31:13.370Z,568
2022-09-24T08:32:05.139Z,580
2022-09-24T08:32:56.946Z,557
2022-09-24T08:33:48.723Z,571
2022-09-24T08:34:40.615Z,559
2022-09-24T08:35:32.408Z,580
2022-09-24T08:36:24.225Z,579
2022-09-24T08:37:16.050Z,587
2022-09-24T08:38:07.864Z,594
2022-09-24T08:38:59.617Z,601
2022-09-24T08:39:51.495Z,609
2022-09-24T08:40:43.409Z,659
2022-09-24T08:41:35.125Z,659
2022-09-24T08:42:26.970Z,641
2022-09-24T08:43:18.725Z,677
2022-09-24T08:44:10.617Z,721
2022-09-24T08:45:02.352Z,696
2022-09-24T08:45:54.241Z,665
2022-09-24T08:46:46.108Z,642
2022-09-24T08:47:37.876Z,626
2022-09-24T08:48:29.689Z,616
2022-09-24T08:49:21.515Z,592
2022-09-24T08:50:13.346Z,608
2022-09-24T08:51:05.174Z,609
2022-09-24T08:51:56.977Z,619
2022-09-24T08:52:48.740Z,601
2022-09-24T08:53:40.649Z,617
2022-09-24T08:54:32.453Z,594
2022-09-24T08:55:24.289Z,580
2022-09-24T08:56:16.099Z,572
2022-09-24T08:57:07.920Z,595
2022-09-24T08:57:59.764Z,599
2022-09-24T08:58:51.558Z,581
2022-09-24T08:59:43.406Z,578
2022-09-24T09:00:35.210Z,578
2022-09-24T09:01:27.087Z,582
2022-09-24T09:02:18.884Z,603
2022-09-24T09:03:10.853Z,611
2022-09-24T09:04:02.508Z,590
2022-09-24T09:04:54.336Z,631
2022-09-24T09:05:49.459Z,634
2022-09-24T09:06:37.992Z,639
2022-09-24T09:07:29.689Z,664
2022-09-24T09:09:13.475Z,652
2022-09-24T09:10:05.279Z,641
2022-09-24T09:10:57.085Z,647
2022-09-24T09:11:48.866Z,641
2022-09-24T09:12:40.740Z,620
2022-09-24T09:13:32.574Z,654
2022-09-24T09:14:28.020Z,642
2022-09-24T09:15:16.220Z,656
2022-09-24T09:16:08.160Z,653
2022-09-24T09:16:59.888Z,652
2022-09-24T09:17:51.692Z,647
2022-09-24T09:18:43.553Z,662
2022-09-24T09:19:35.346Z,666
2022-09-24T09:20:27.197Z,646
2022-09-24T09:21:18.923Z,652
2022-09-24T09:22:10.862Z,660
2022-09-24T09:23:02.655Z,653
2022-09-24T09:23:54.509Z,686
2022-09-24T09:24:46.317Z,673
2022-09-24T09:25:38.155Z,674
2022-09-24T09:26:29.987Z,671
2022-09-24T09:27:21.832Z,669
2022-09-24T09:28:13.646Z,669
2022-09-24T09:29:05.506Z,683
2022-09-24T09:29:57.299Z,675
2022-09-24T09:30:49.132Z,678
2022-09-24T09:31:41.049Z,672
2022-09-24T09:32:32.792Z,665
2022-09-24T09:33:24.604Z,647
2022-09-24T09:34:16.446Z,684
2022-09-24T09:35:08.271Z,681
2022-09-24T09:36:00.125Z,681
2022-09-24T09:36:51.955Z,685
2022-09-24T09:37:43.785Z,699
2022-09-24T09:38:35.597Z,688
2022-09-24T09:39:27.422Z,766
2022-09-24T09:40:19.238Z,743
2022-09-24T09:41:11.090Z,729
2022-09-24T09:42:02.897Z,709
2022-09-24T09:42:54.744Z,705
2022-09-24T09:43:46.562Z,698
2022-09-24T09:44:38.413Z,689
2022-09-24T09:45:30.220Z,753
2022-09-24T09:46:22.145Z,751
2022-09-24T09:47:13.875Z,694
2022-09-24T09:48:05.748Z,681
2022-09-24T09:48:57.550Z,713
2022-09-24T09:49:49.304Z,686
2022-09-24T09:50:41.221Z,693
2022-09-24T09:51:33.043Z,686
2022-09-24T09:52:24.869Z,681
2022-09-24T09:53:16.701Z,692
2022-09-24T09:54:08.623Z,686
2022-09-24T09:55:00.365Z,681
2022-09-24T09:55:52.201Z,674
2022-09-24T09:56:44.016Z,669
2022-09-24T09:57:35.839Z,665
2022-09-24T09:58:27.670Z,642
2022-09-24T09:59:19.468Z,645
2022-09-24T10:00:11.329Z,646
2022-09-24T10:01:03.158Z,678
2022-09-24T10:01:55.087Z,668
2022-09-24T10:02:46.882Z,685
2022-09-24T10:03:38.730Z,677
2022-09-24T10:04:30.469Z,691
2022-09-24T10:05:27.019Z,717
2022-09-24T10:06:14.126Z,703
2022-09-24T10:07:05.959Z,749
2022-09-24T10:07:57.803Z,695
2022-09-24T10:08:49.570Z,755
2022-09-24T10:09:41.441Z,788
2022-09-24T10:10:33.281Z,745
2022-09-24T10:11:25.099Z,715
2022-09-24T10:12:16.962Z,711
2022-09-24T10:13:08.760Z,854
2022-09-24T10:14:00.617Z,937
2022-09-24T10:14:52.422Z,1058
2022-09-24T10:15:45.615Z,1088
2022-09-24T10:16:36.185Z,1114
2022-09-24T10:17:27.921Z,1130
2022-09-24T10:18:19.670Z,1183
2022-09-24T10:19:11.597Z,1136
2022-09-24T10:20:03.371Z,2881
2022-09-24T10:20:55.235Z,7696
2022-09-24T10:21:47.054Z,9168
2022-09-24T10:22:38.879Z,17792
2022-09-24T10:23:30.729Z,14571
2022-09-24T10:24:22.581Z,27857
2022-09-24T10:25:14.390Z,14449
2022-09-24T10:26:06.245Z,13438
2022-09-24T10:26:58.036Z,17922
2022-09-24T10:27:49.903Z,13697
2022-09-24T10:28:41.701Z,13333
2022-09-24T10:29:33.549Z,12969
2022-09-24T10:30:25.379Z,11546
2022-09-24T10:31:17.352Z,14280
2022-09-24T10:32:08.953Z,18052
2022-09-24T10:33:00.878Z,19448
2022-09-24T10:33:52.715Z,18052
2022-09-24T10:34:44.552Z,14668
2022-09-24T10:35:36.386Z,14482
2022-09-24T10:36:28.229Z,13964
2022-09-24T10:37:20.041Z,16461
2022-09-24T10:38:11.885Z,18279
2022-09-24T10:39:03.722Z,15650
2022-09-24T10:39:55.573Z,13843
2022-09-24T10:40:47.558Z,14587
2022-09-24T10:41:39.157Z,13665
2022-09-24T10:42:31.082Z,12662
2022-09-24T10:43:22.919Z,13002
2022-09-24T10:44:14.744Z,13252
2022-09-24T10:45:06.509Z,12266
2022-09-24T10:45:58.422Z,12225
2022-09-24T10:46:50.355Z,12646
2022-09-24T10:47:42.090Z,12023
2022-09-24T10:48:33.957Z,12330
2022-09-24T10:49:25.784Z,11522
2022-09-24T10:50:17.643Z,11788
2022-09-24T10:51:09.372Z,11489
2022-09-24T10:52:01.334Z,12274
2022-09-24T10:52:53.139Z,11829
2022-09-24T10:53:44.991Z,11683
2022-09-24T10:54:36.835Z,11109
2022-09-24T10:55:28.668Z,11052
2022-09-24T10:56:20.512Z,10923
2022-09-24T10:57:12.357Z,10737
2022-09-24T10:58:04.181Z,11166
2022-09-24T10:58:56.035Z,10591
2022-09-24T10:59:47.865Z,10268
2022-09-24T11:00:39.741Z,10939
2022-09-24T11:01:31.631Z,10939
2022-09-24T11:02:23.469Z,10357
2022-09-24T11:03:15.265Z,9839
2022-09-24T11:04:07.242Z,9791
2022-09-24T11:04:58.942Z,9993
2022-09-24T11:05:50.775Z,11821
2022-09-24T11:06:42.601Z,10866
2022-09-24T11:07:34.459Z,10098
2022-09-24T11:08:26.295Z,9904
2022-09-24T11:09:18.156Z,9370
2022-09-24T11:10:10.176Z,9726
2022-09-24T11:11:01.715Z,9807
2022-09-24T11:11:53.656Z,9135
2022-09-24T11:12:45.502Z,9030
2022-09-24T11:13:37.332Z,8812
2022-09-24T11:14:29.190Z,9095
2022-09-24T11:15:21.013Z,9046
2022-09-24T11:16:12.902Z,8869
2022-09-24T11:17:04.689Z,8699
2022-09-24T11:17:56.560Z,8569
2022-09-24T11:18:48.369Z,8804
2022-09-24T11:19:40.234Z,8529
2022-09-24T11:20:32.056Z,8472
2022-09-24T11:21:23.895Z,8157
2022-09-24T11:22:15.753Z,8577
2022-09-24T11:23:07.587Z,8650
2022-09-24T11:23:59.446Z,8141
2022-09-24T11:24:51.270Z,8205
2022-09-24T11:25:43.098Z,7825
2022-09-24T11:26:34.954Z,7890
2022-09-24T11:27:26.775Z,8133
2022-09-24T11:28:18.634Z,8068
2022-09-24T11:29:10.460Z,7833
2022-09-24T11:30:02.316Z,7971
2022-09-24T11:30:54.181Z,7874
2022-09-24T11:31:46.073Z,7785
2022-09-24T11:32:37.812Z,7591
2022-09-24T11:33:29.610Z,7494
2022-09-24T11:34:21.483Z,7663
2022-09-24T11:35:13.401Z,7631
2022-09-24T11:36:05.199Z,7922
2022-09-24T11:36:57.022Z,7574
2022-09-24T11:37:48.873Z,7429
2022-09-24T11:38:40.712Z,7437
2022-09-24T11:39:32.543Z,7308
2022-09-24T11:40:24.445Z,7122
2022-09-24T11:41:16.219Z,7372
2022-09-24T11:42:08.071Z,7299
2022-09-24T11:42:59.862Z,7769
2022-09-24T11:43:51.701Z,7364
2022-09-24T11:44:43.575Z,7267
2022-09-24T11:45:35.437Z,7057
2022-09-24T11:46:27.343Z,7122